sensor_id;sensor_type;location;lat;lon;timestamp;pressure;altitude;pressure_sealevel;temperature;humidity
40954;BME280;26686;50.130;8.710;2022-08-21T00:00:27;100196.94;;;21.75;52.11
40954;BME280;26686;50.130;8.710;2022-08-21T00:05:30;100186.56;;;21.79;54.30
40954;BME280;26686;50.130;8.710;2022-08-21T00:10:32;100186.56;;;21.85;52.50
40954;BME280;26686;50.130;8.710;2022-08-21T00:15:36;100175.75;;;21.85;51.65
40954;BME280;26686;50.130;8.710;2022-08-21T00:20:39;100161.97;;;21.80;53.60
40954;BME280;26686;50.130;8.710;2022-08-21T00:25:41;100166.53;;;21.80;53.72
40954;BME280;26686;50.130;8.710;2022-08-21T00:30:43;100160.94;;;21.81;54.31
40954;BME280;26686;50.130;8.710;2022-08-21T00:35:45;100165.91;;;21.78;53.06
40954;BME280;26686;50.130;8.710;2022-08-21T00:40:53;100160.16;;;21.59;55.48
40954;BME280;26686;50.130;8.710;2022-08-21T00:45:56;100165.66;;;21.44;55.24
40954;BME280;26686;50.130;8.710;2022-08-21T00:51:07;100166.41;;;21.60;55.48
40954;BME280;26686;50.130;8.710;2022-08-21T00:56:10;100159.97;;;21.61;54.50
40954;BME280;26686;50.130;8.710;2022-08-21T01:01:13;100159.56;;;21.64;54.98
40954;BME280;26686;50.130;8.710;2022-08-21T01:06:15;100167.50;;;21.65;55.72
40954;BME280;26686;50.130;8.710;2022-08-21T01:11:16;100167.50;;;21.65;55.58
40954;BME280;26686;50.130;8.710;2022-08-21T01:16:20;100165.19;;;21.62;53.97
40954;BME280;26686;50.130;8.710;2022-08-21T01:21:25;100172.47;;;21.62;55.69
40954;BME280;26686;50.130;8.710;2022-08-21T01:26:32;100169.53;;;21.57;54.84
40954;BME280;26686;50.130;8.710;2022-08-21T01:31:34;100170.47;;;21.49;56.46
40954;BME280;26686;50.130;8.710;2022-08-21T01:36:36;100176.41;;;21.37;56.72
40954;BME280;26686;50.130;8.710;2022-08-21T01:41:37;100178.09;;;21.39;56.88
40954;BME280;26686;50.130;8.710;2022-08-21T01:46:39;100172.09;;;21.43;56.24
40954;BME280;26686;50.130;8.710;2022-08-21T01:51:41;100172.09;;;21.43;57.70
40954;BME280;26686;50.130;8.710;2022-08-21T01:56:45;100178.31;;;21.37;56.57
40954;BME280;26686;50.130;8.710;2022-08-21T02:01:47;100163.63;;;21.25;57.08
40954;BME280;26686;50.130;8.710;2022-08-21T02:06:49;100167.81;;;21.27;57.61
40954;BME280;26686;50.130;8.710;2022-08-21T02:11:51;100170.47;;;21.21;56.51
40954;BME280;26686;50.130;8.710;2022-08-21T02:16:53;100168.34;;;21.16;57.27
40954;BME280;26686;50.130;8.710;2022-08-21T02:22:10;100158.63;;;21.22;57.79
40954;BME280;26686;50.130;8.710;2022-08-21T02:27:12;100149.59;;;21.14;57.84
40954;BME280;26686;50.130;8.710;2022-08-21T02:32:13;100156.94;;;21.21;57.90
40954;BME280;26686;50.130;8.710;2022-08-21T02:37:16;100151.50;;;21.21;56.98
40954;BME280;26686;50.130;8.710;2022-08-21T02:42:17;100151.28;;;21.15;57.00
40954;BME280;26686;50.130;8.710;2022-08-21T02:47:19;100153.97;;;21.15;58.07
40954;BME280;26686;50.130;8.710;2022-08-21T02:52:20;100149.34;;;21.09;58.81
40954;BME280;26686;50.130;8.710;2022-08-21T02:57:23;100155.47;;;20.96;57.94
40954;BME280;26686;50.130;8.710;2022-08-21T03:02:24;100150.69;;;20.98;59.63
40954;BME280;26686;50.130;8.710;2022-08-21T03:07:26;100155.09;;;20.99;58.80
40954;BME280;26686;50.130;8.710;2022-08-21T03:12:28;100145.75;;;21.02;58.27
40954;BME280;26686;50.130;8.710;2022-08-21T03:17:30;100139.28;;;21.03;59.03
40954;BME280;26686;50.130;8.710;2022-08-21T03:22:32;100139.44;;;20.73;57.47
40954;BME280;26686;50.130;8.710;2022-08-21T03:27:34;100143.19;;;20.72;58.30
40954;BME280;26686;50.130;8.710;2022-08-21T03:32:35;100138.91;;;20.63;57.54
40954;BME280;26686;50.130;8.710;2022-08-21T03:37:37;100161.09;;;20.58;59.24
40954;BME280;26686;50.130;8.710;2022-08-21T03:42:39;100159.34;;;20.51;59.38
40954;BME280;26686;50.130;8.710;2022-08-21T03:48:09;100160.59;;;20.33;60.89
40954;BME280;26686;50.130;8.710;2022-08-21T03:53:14;100163.97;;;20.20;60.70
40954;BME280;26686;50.130;8.710;2022-08-21T03:58:19;100166.06;;;20.03;60.17
40954;BME280;26686;50.130;8.710;2022-08-21T04:03:21;100177.97;;;19.94;60.29
40954;BME280;26686;50.130;8.710;2022-08-21T04:08:22;100188.41;;;19.97;61.67
40954;BME280;26686;50.130;8.710;2022-08-21T04:13:25;100186.47;;;19.91;61.41
40954;BME280;26686;50.130;8.710;2022-08-21T04:18:29;100182.22;;;19.73;61.60
40954;BME280;26686;50.130;8.710;2022-08-21T04:23:30;100196.97;;;19.86;61.38
40954;BME280;26686;50.130;8.710;2022-08-21T04:28:32;100201.44;;;19.78;61.86
40954;BME280;26686;50.130;8.710;2022-08-21T04:33:34;100203.81;;;19.73;62.72
40954;BME280;26686;50.130;8.710;2022-08-21T04:38:35;100208.28;;;19.66;62.01
40954;BME280;26686;50.130;8.710;2022-08-21T04:43:39;100209.22;;;19.73;61.25
40954;BME280;26686;50.130;8.710;2022-08-21T04:48:40;100204.00;;;19.72;61.93
40954;BME280;26686;50.130;8.710;2022-08-21T04:53:48;100209.97;;;19.67;61.43
40954;BME280;26686;50.130;8.710;2022-08-21T04:58:55;100217.88;;;19.69;61.19
40954;BME280;26686;50.130;8.710;2022-08-21T05:04:00;100225.22;;;19.60;61.87
40954;BME280;26686;50.130;8.710;2022-08-21T05:09:03;100223.44;;;19.52;61.32
40954;BME280;26686;50.130;8.710;2022-08-21T05:14:05;100229.03;;;19.51;61.28
40954;BME280;26686;50.130;8.710;2022-08-21T05:19:07;100243.38;;;19.66;61.30
40954;BME280;26686;50.130;8.710;2022-08-21T05:24:09;100246.00;;;19.59;60.09
40954;BME280;26686;50.130;8.710;2022-08-21T05:29:11;100247.56;;;19.54;60.13
40954;BME280;26686;50.130;8.710;2022-08-21T05:34:17;100248.88;;;19.58;60.16
40954;BME280;26686;50.130;8.710;2022-08-21T05:39:19;100251.63;;;19.50;60.24
40954;BME280;26686;50.130;8.710;2022-08-21T05:44:21;100236.91;;;19.37;60.59
40954;BME280;26686;50.130;8.710;2022-08-21T05:49:22;100244.56;;;19.49;60.49
40954;BME280;26686;50.130;8.710;2022-08-21T05:54:24;100249.81;;;19.65;60.07
40954;BME280;26686;50.130;8.710;2022-08-21T05:59:25;100253.03;;;19.60;60.25
40954;BME280;26686;50.130;8.710;2022-08-21T06:04:28;100249.34;;;19.61;60.91
40954;BME280;26686;50.130;8.710;2022-08-21T06:09:30;100253.34;;;19.66;61.97
40954;BME280;26686;50.130;8.710;2022-08-21T06:14:31;100248.97;;;19.88;60.52
40954;BME280;26686;50.130;8.710;2022-08-21T06:19:34;100256.41;;;20.16;59.62
40954;BME280;26686;50.130;8.710;2022-08-21T06:24:36;100256.53;;;20.37;58.84
40954;BME280;26686;50.130;8.710;2022-08-21T06:29:37;100268.16;;;20.53;58.76
40954;BME280;26686;50.130;8.710;2022-08-21T06:34:45;100258.66;;;20.72;58.44
40954;BME280;26686;50.130;8.710;2022-08-21T06:39:46;100254.44;;;20.69;58.00
40954;BME280;26686;50.130;8.710;2022-08-21T06:44:49;100258.34;;;20.66;59.95
40954;BME280;26686;50.130;8.710;2022-08-21T06:49:51;100247.88;;;20.78;59.75
40954;BME280;26686;50.130;8.710;2022-08-21T06:54:53;100261.72;;;21.05;59.79
40954;BME280;26686;50.130;8.710;2022-08-21T06:59:54;100243.53;;;21.21;57.75
40954;BME280;26686;50.130;8.710;2022-08-21T07:04:56;100241.97;;;21.33;57.68
40954;BME280;26686;50.130;8.710;2022-08-21T07:09:57;100253.59;;;21.48;57.71
40954;BME280;26686;50.130;8.710;2022-08-21T07:14:59;100249.34;;;21.61;57.39
40954;BME280;26686;50.130;8.710;2022-08-21T07:20:00;100255.09;;;21.79;57.45
40954;BME280;26686;50.130;8.710;2022-08-21T07:25:03;100250.97;;;21.83;56.99
40954;BME280;26686;50.130;8.710;2022-08-21T07:30:06;100238.63;;;22.09;55.94
40954;BME280;26686;50.130;8.710;2022-08-21T07:35:07;100243.66;;;22.12;56.07
40954;BME280;26686;50.130;8.710;2022-08-21T07:40:09;100236.50;;;22.33;54.92
40954;BME280;26686;50.130;8.710;2022-08-21T07:45:12;100235.34;;;22.62;55.65
40954;BME280;26686;50.130;8.710;2022-08-21T07:50:14;100234.63;;;22.88;54.22
40954;BME280;26686;50.130;8.710;2022-08-21T07:55:18;100221.53;;;23.19;53.59
40954;BME280;26686;50.130;8.710;2022-08-21T08:00:23;100224.88;;;23.47;52.62
40954;BME280;26686;50.130;8.710;2022-08-21T08:05:27;100222.59;;;23.64;51.85
40954;BME280;26686;50.130;8.710;2022-08-21T08:10:29;100207.13;;;23.85;50.15
40954;BME280;26686;50.130;8.710;2022-08-21T08:15:31;100214.19;;;23.99;50.69
40954;BME280;26686;50.130;8.710;2022-08-21T08:20:37;100218.75;;;24.12;49.59
40954;BME280;26686;50.130;8.710;2022-08-21T08:25:40;100214.59;;;24.10;50.58
40954;BME280;26686;50.130;8.710;2022-08-21T08:30:42;100218.28;;;24.29;50.46
40954;BME280;26686;50.130;8.710;2022-08-21T08:35:46;100206.09;;;24.45;50.59
40954;BME280;26686;50.130;8.710;2022-08-21T08:41:16;100209.31;;;24.74;49.08
40954;BME280;26686;50.130;8.710;2022-08-21T08:46:30;100196.56;;;25.06;48.29
40954;BME280;26686;50.130;8.710;2022-08-21T08:51:40;100194.41;;;25.15;48.77
40954;BME280;26686;50.130;8.710;2022-08-21T08:56:43;100183.22;;;25.30;47.30
40954;BME280;26686;50.130;8.710;2022-08-21T09:01:46;100188.97;;;25.65;47.73
40954;BME280;26686;50.130;8.710;2022-08-21T09:12:07;100164.88;;;26.55;44.53
40954;BME280;26686;50.130;8.710;2022-08-21T09:27:51;100159.78;;;26.58;40.62
40954;BME280;26686;50.130;8.710;2022-08-21T09:32:52;100156.16;;;26.16;41.20
40954;BME280;26686;50.130;8.710;2022-08-21T09:38:00;100151.69;;;26.21;40.13
40954;BME280;26686;50.130;8.710;2022-08-21T09:43:21;100158.31;;;26.74;40.07
40954;BME280;26686;50.130;8.710;2022-08-21T09:48:24;100146.06;;;27.19;38.94
40954;BME280;26686;50.130;8.710;2022-08-21T09:53:33;100149.97;;;27.94;38.30
40954;BME280;26686;50.130;8.710;2022-08-21T09:58:38;100141.09;;;28.28;37.54
40954;BME280;26686;50.130;8.710;2022-08-21T10:03:40;100137.78;;;28.54;35.59
40954;BME280;26686;50.130;8.710;2022-08-21T10:08:41;100137.19;;;29.15;34.89
40954;BME280;26686;50.130;8.710;2022-08-21T10:14:06;100126.03;;;30.17;32.29
40954;BME280;26686;50.130;8.710;2022-08-21T10:19:26;100122.91;;;30.08;32.80
40954;BME280;26686;50.130;8.710;2022-08-21T10:24:40;100111.28;;;31.05;29.46
40954;BME280;26686;50.130;8.710;2022-08-21T10:29:51;100102.13;;;29.90;31.01
40954;BME280;26686;50.130;8.710;2022-08-21T10:35:06;100113.47;;;29.21;31.56
40954;BME280;26686;50.130;8.710;2022-08-21T10:40:18;100118.34;;;28.68;33.02
40954;BME280;26686;50.130;8.710;2022-08-21T10:45:58;100102.31;;;30.55;30.52
40954;BME280;26686;50.130;8.710;2022-08-21T10:51:10;100099.84;;;32.50;27.85
40954;BME280;26686;50.130;8.710;2022-08-21T10:56:36;100101.03;;;32.85;27.52
40954;BME280;26686;50.130;8.710;2022-08-21T11:07:18;100087.31;;;36.65;22.72
40954;BME280;26686;50.130;8.710;2022-08-21T11:12:41;100076.69;;;39.87;19.61
40954;BME280;26686;50.130;8.710;2022-08-21T11:17:52;100072.84;;;42.12;16.91
40954;BME280;26686;50.130;8.710;2022-08-21T11:23:11;100062.22;;;42.94;14.75
40954;BME280;26686;50.130;8.710;2022-08-21T11:33:34;100059.59;;;42.64;15.01
40954;BME280;26686;50.130;8.710;2022-08-21T11:38:53;100055.78;;;43.51;15.52
40954;BME280;26686;50.130;8.710;2022-08-21T11:44:29;100041.13;;;38.41;19.78
40954;BME280;26686;50.130;8.710;2022-08-21T12:00:37;100034.44;;;39.36;19.08
40954;BME280;26686;50.130;8.710;2022-08-21T12:05:43;100025.03;;;37.64;21.02
40954;BME280;26686;50.130;8.710;2022-08-21T12:10:47;100017.25;;;36.45;21.74
40954;BME280;26686;50.130;8.710;2022-08-21T12:16:13;100022.81;;;35.64;22.59
40954;BME280;26686;50.130;8.710;2022-08-21T12:21:27;100015.88;;;35.66;23.12
40954;BME280;26686;50.130;8.710;2022-08-21T12:32:02;100021.78;;;33.47;23.98
40954;BME280;26686;50.130;8.710;2022-08-21T12:37:37;100016.88;;;33.34;23.41
40954;BME280;26686;50.130;8.710;2022-08-21T12:42:45;100011.19;;;33.70;24.49
40954;BME280;26686;50.130;8.710;2022-08-21T12:48:25;100002.63;;;32.86;24.12
40954;BME280;26686;50.130;8.710;2022-08-21T12:53:47;99998.72;;;32.04;26.61
40954;BME280;26686;50.130;8.710;2022-08-21T12:58:53;100002.63;;;32.91;24.54
40954;BME280;26686;50.130;8.710;2022-08-21T13:03:58;100005.13;;;32.46;25.07
40954;BME280;26686;50.130;8.710;2022-08-21T13:09:09;99997.69;;;32.83;24.46
40954;BME280;26686;50.130;8.710;2022-08-21T13:14:31;99994.91;;;32.83;24.48
40954;BME280;26686;50.130;8.710;2022-08-21T13:19:41;99997.06;;;32.03;24.51
40954;BME280;26686;50.130;8.710;2022-08-21T13:24:42;99989.06;;;31.92;26.17
40954;BME280;26686;50.130;8.710;2022-08-21T13:29:44;99984.94;;;32.10;25.00
40954;BME280;26686;50.130;8.710;2022-08-21T13:34:53;99980.63;;;32.34;23.90
40954;BME280;26686;50.130;8.710;2022-08-21T13:39:55;99972.88;;;32.05;24.69
40954;BME280;26686;50.130;8.710;2022-08-21T13:44:57;99973.44;;;32.13;24.08
40954;BME280;26686;50.130;8.710;2022-08-21T13:49:58;99973.44;;;32.33;24.44
40954;BME280;26686;50.130;8.710;2022-08-21T13:55:15;99975.09;;;32.34;24.18
40954;BME280;26686;50.130;8.710;2022-08-21T14:00:26;99958.75;;;31.71;25.15
40954;BME280;26686;50.130;8.710;2022-08-21T14:05:31;99961.75;;;31.64;25.84
40954;BME280;26686;50.130;8.710;2022-08-21T14:10:36;99955.16;;;31.65;25.32
40954;BME280;26686;50.130;8.710;2022-08-21T14:15:41;99947.47;;;31.62;25.06
40954;BME280;26686;50.130;8.710;2022-08-21T14:20:45;99949.63;;;31.55;25.17
40954;BME280;26686;50.130;8.710;2022-08-21T14:25:46;99939.41;;;30.92;25.77
40954;BME280;26686;50.130;8.710;2022-08-21T14:30:48;99945.31;;;30.68;26.58
40954;BME280;26686;50.130;8.710;2022-08-21T14:35:54;99938.28;;;30.88;26.49
40954;BME280;26686;50.130;8.710;2022-08-21T14:40:59;99933.31;;;30.85;26.21
40954;BME280;26686;50.130;8.710;2022-08-21T14:46:01;99926.13;;;30.79;26.23
40954;BME280;26686;50.130;8.710;2022-08-21T14:51:02;99929.97;;;30.73;26.27
40954;BME280;26686;50.130;8.710;2022-08-21T14:56:04;99929.41;;;30.71;26.62
40954;BME280;26686;50.130;8.710;2022-08-21T15:01:06;99919.19;;;30.28;25.70
40954;BME280;26686;50.130;8.710;2022-08-21T15:06:09;99914.75;;;30.22;26.94
40954;BME280;26686;50.130;8.710;2022-08-21T15:11:16;99920.38;;;30.05;26.87
40954;BME280;26686;50.130;8.710;2022-08-21T15:16:37;99914.06;;;30.05;26.75
40954;BME280;26686;50.130;8.710;2022-08-21T15:21:39;99910.97;;;29.96;26.38
40954;BME280;26686;50.130;8.710;2022-08-21T15:26:41;99918.94;;;29.97;26.74
40954;BME280;26686;50.130;8.710;2022-08-21T15:31:59;99926.53;;;29.90;26.32
40954;BME280;26686;50.130;8.710;2022-08-21T15:37:00;99919.34;;;29.84;27.00
40954;BME280;26686;50.130;8.710;2022-08-21T15:42:03;99910.72;;;29.75;26.63
40954;BME280;26686;50.130;8.710;2022-08-21T15:47:17;99918.41;;;29.73;26.27
40954;BME280;26686;50.130;8.710;2022-08-21T15:52:20;99908.88;;;29.54;26.40
40954;BME280;26686;50.130;8.710;2022-08-21T15:57:23;99903.09;;;29.28;26.83
40954;BME280;26686;50.130;8.710;2022-08-21T16:02:29;99907.50;;;29.29;26.79
40954;BME280;26686;50.130;8.710;2022-08-21T16:07:31;99902.44;;;28.99;26.90
40954;BME280;26686;50.130;8.710;2022-08-21T16:12:37;99907.59;;;28.95;27.07
40954;BME280;26686;50.130;8.710;2022-08-21T16:17:41;99913.44;;;28.82;28.20
40954;BME280;26686;50.130;8.710;2022-08-21T16:22:45;99906.66;;;28.67;28.10
40954;BME280;26686;50.130;8.710;2022-08-21T16:27:50;99893.53;;;28.52;27.66
40954;BME280;26686;50.130;8.710;2022-08-21T16:32:56;99891.31;;;28.49;27.92
40954;BME280;26686;50.130;8.710;2022-08-21T16:37:58;99887.19;;;28.30;29.09
40954;BME280;26686;50.130;8.710;2022-08-21T16:43:00;99887.94;;;28.25;28.94
40954;BME280;26686;50.130;8.710;2022-08-21T16:48:02;99890.25;;;28.16;29.51
40954;BME280;26686;50.130;8.710;2022-08-21T16:53:06;99882.91;;;28.00;29.31
40954;BME280;26686;50.130;8.710;2022-08-21T16:58:30;99885.41;;;27.90;29.08
40954;BME280;26686;50.130;8.710;2022-08-21T17:03:40;99884.63;;;27.77;29.04
40954;BME280;26686;50.130;8.710;2022-08-21T17:08:43;99880.66;;;27.68;29.71
40954;BME280;26686;50.130;8.710;2022-08-21T17:13:44;99884.28;;;27.57;29.64
40954;BME280;26686;50.130;8.710;2022-08-21T17:18:46;99869.75;;;27.39;30.11
40954;BME280;26686;50.130;8.710;2022-08-21T17:23:52;99871.19;;;27.30;30.07
40954;BME280;26686;50.130;8.710;2022-08-21T17:28:53;99874.75;;;27.19;29.58
40954;BME280;26686;50.130;8.710;2022-08-21T17:33:55;99884.41;;;27.09;30.30
40954;BME280;26686;50.130;8.710;2022-08-21T17:38:57;99867.72;;;26.94;30.17
40954;BME280;26686;50.130;8.710;2022-08-21T17:44:02;99861.56;;;26.87;29.86
40954;BME280;26686;50.130;8.710;2022-08-21T17:49:06;99861.34;;;26.76;30.88
40954;BME280;26686;50.130;8.710;2022-08-21T17:54:08;99864.69;;;26.67;30.62
40954;BME280;26686;50.130;8.710;2022-08-21T17:59:10;99858.59;;;26.53;30.65
40954;BME280;26686;50.130;8.710;2022-08-21T18:04:13;99863.94;;;26.48;30.58
40954;BME280;26686;50.130;8.710;2022-08-21T18:09:14;99873.81;;;26.37;29.88
40954;BME280;26686;50.130;8.710;2022-08-21T18:14:15;99863.59;;;26.20;30.35
40954;BME280;26686;50.130;8.710;2022-08-21T18:19:17;99876.66;;;26.18;31.11
40954;BME280;26686;50.130;8.710;2022-08-21T18:24:22;99881.72;;;26.03;30.67
40954;BME280;26686;50.130;8.710;2022-08-21T18:29:24;99887.03;;;25.98;30.67
40954;BME280;26686;50.130;8.710;2022-08-21T18:34:29;99894.66;;;25.77;30.83
40954;BME280;26686;50.130;8.710;2022-08-21T18:39:31;99905.34;;;25.79;31.13
40954;BME280;26686;50.130;8.710;2022-08-21T18:44:38;99902.94;;;25.70;31.18
40954;BME280;26686;50.130;8.710;2022-08-21T18:49:41;99910.63;;;25.62;31.07
40954;BME280;26686;50.130;8.710;2022-08-21T18:54:43;99920.88;;;25.48;32.38
40954;BME280;26686;50.130;8.710;2022-08-21T18:59:45;99916.88;;;25.32;31.62
40954;BME280;26686;50.130;8.710;2022-08-21T19:04:46;99926.94;;;25.31;32.58
40954;BME280;26686;50.130;8.710;2022-08-21T19:09:48;99918.13;;;25.29;32.12
40954;BME280;26686;50.130;8.710;2022-08-21T19:15:15;99919.03;;;25.23;31.86
40954;BME280;26686;50.130;8.710;2022-08-21T19:20:24;99937.22;;;25.11;33.36
40954;BME280;26686;50.130;8.710;2022-08-21T19:25:27;99930.41;;;25.01;33.84
40954;BME280;26686;50.130;8.710;2022-08-21T19:30:43;99943.63;;;24.98;33.27
40954;BME280;26686;50.130;8.710;2022-08-21T19:35:48;99945.16;;;24.94;33.48
40954;BME280;26686;50.130;8.710;2022-08-21T19:41:12;99937.94;;;24.81;33.74
40954;BME280;26686;50.130;8.710;2022-08-21T19:46:19;99934.31;;;24.68;33.29
40954;BME280;26686;50.130;8.710;2022-08-21T19:51:22;99943.50;;;24.67;34.19
40954;BME280;26686;50.130;8.710;2022-08-21T19:56:27;99935.28;;;24.49;34.47
40954;BME280;26686;50.130;8.710;2022-08-21T20:01:29;99945.00;;;24.38;34.45
40954;BME280;26686;50.130;8.710;2022-08-21T20:06:32;99942.19;;;24.26;34.50
40954;BME280;26686;50.130;8.710;2022-08-21T20:11:42;99944.00;;;24.32;34.57
40954;BME280;26686;50.130;8.710;2022-08-21T20:16:46;99946.31;;;24.29;34.24
40954;BME280;26686;50.130;8.710;2022-08-21T20:21:53;99944.47;;;24.29;34.54
40954;BME280;26686;50.130;8.710;2022-08-21T20:26:56;99950.16;;;24.21;34.08
40954;BME280;26686;50.130;8.710;2022-08-21T20:31:58;99946.03;;;24.12;34.60
40954;BME280;26686;50.130;8.710;2022-08-21T20:37:00;99939.47;;;23.94;34.19
40954;BME280;26686;50.130;8.710;2022-08-21T20:42:05;99953.91;;;23.88;36.28
40954;BME280;26686;50.130;8.710;2022-08-21T20:47:09;99940.81;;;23.72;34.63
40954;BME280;26686;50.130;8.710;2022-08-21T20:52:13;99958.22;;;23.64;38.54
40954;BME280;26686;50.130;8.710;2022-08-21T20:57:17;99963.00;;;23.69;39.23
40954;BME280;26686;50.130;8.710;2022-08-21T21:02:42;99959.22;;;23.70;37.40
40954;BME280;26686;50.130;8.710;2022-08-21T21:08:08;99958.44;;;23.62;37.23
40954;BME280;26686;50.130;8.710;2022-08-21T21:13:41;99958.25;;;23.57;37.00
40954;BME280;26686;50.130;8.710;2022-08-21T21:18:52;99969.34;;;23.49;37.16
40954;BME280;26686;50.130;8.710;2022-08-21T21:24:17;99971.06;;;23.37;38.02
40954;BME280;26686;50.130;8.710;2022-08-21T21:29:27;99961.13;;;23.17;38.67
40954;BME280;26686;50.130;8.710;2022-08-21T21:34:36;99969.25;;;23.17;38.83
40954;BME280;26686;50.130;8.710;2022-08-21T21:39:48;99957.78;;;23.02;40.37
40954;BME280;26686;50.130;8.710;2022-08-21T21:45:07;99975.13;;;23.01;39.41
40954;BME280;26686;50.130;8.710;2022-08-21T21:50:18;99985.56;;;22.90;40.54
40954;BME280;26686;50.130;8.710;2022-08-21T21:55:48;99977.25;;;22.72;40.30
40954;BME280;26686;50.130;8.710;2022-08-21T22:01:08;99984.97;;;22.68;40.80
40954;BME280;26686;50.130;8.710;2022-08-21T22:06:18;99984.97;;;22.75;40.34
40954;BME280;26686;50.130;8.710;2022-08-21T22:11:28;99987.06;;;22.59;39.92
40954;BME280;26686;50.130;8.710;2022-08-21T22:16:35;99979.97;;;22.45;42.19
40954;BME280;26686;50.130;8.710;2022-08-21T22:21:38;99985.81;;;22.55;41.11
40954;BME280;26686;50.130;8.710;2022-08-21T22:26:48;99996.25;;;22.58;41.50
40954;BME280;26686;50.130;8.710;2022-08-21T22:32:08;99995.19;;;22.46;41.99
40954;BME280;26686;50.130;8.710;2022-08-21T22:37:10;99990.19;;;22.43;41.90
40954;BME280;26686;50.130;8.710;2022-08-21T22:42:20;99998.75;;;22.40;41.72
40954;BME280;26686;50.130;8.710;2022-08-21T22:52:35;99998.28;;;22.30;41.51
40954;BME280;26686;50.130;8.710;2022-08-21T22:57:37;100002.66;;;22.24;42.67
40954;BME280;26686;50.130;8.710;2022-08-21T23:03:06;100009.56;;;22.33;42.46
40954;BME280;26686;50.130;8.710;2022-08-21T23:08:35;100001.66;;;22.32;42.24
40954;BME280;26686;50.130;8.710;2022-08-21T23:13:43;100004.97;;;22.34;42.77
40954;BME280;26686;50.130;8.710;2022-08-21T23:19:07;99996.22;;;22.32;42.37
40954;BME280;26686;50.130;8.710;2022-08-21T23:35:22;100003.06;;;22.21;43.41
40954;BME280;26686;50.130;8.710;2022-08-21T23:40:53;99999.09;;;22.10;42.98
40954;BME280;26686;50.130;8.710;2022-08-21T23:46:14;100002.22;;;22.07;43.17
